sensor_id;sensor_type;location;lat;lon;timestamp;temperature;humidity
22738;DHT22;11536;50.860;4.286;2022-11-18T00:00:18;11.00;99.90
22738;DHT22;11536;50.860;4.286;2022-11-18T00:02:44;11.00;99.90
22738;DHT22;11536;50.860;4.286;2022-11-18T00:05:09;11.00;99.90
22738;DHT22;11536;50.860;4.286;2022-11-18T00:07:35;11.00;99.90
22738;DHT22;11536;50.860;4.286;2022-11-18T00:10:00;11.00;99.90
22738;DHT22;11536;50.860;4.286;2022-11-18T00:12:26;11.00;99.90
22738;DHT22;11536;50.860;4.286;2022-11-18T00:15:10;11.00;99.90
22738;DHT22;11536;50.860;4.286;2022-11-18T00:17:36;11.00;99.90
22738;DHT22;11536;50.860;4.286;2022-11-18T00:20:01;11.00;99.90
22738;DHT22;11536;50.860;4.286;2022-11-18T00:22:27;11.00;99.90
22738;DHT22;11536;50.860;4.286;2022-11-18T00:24:52;11.00;99.90
22738;DHT22;11536;50.860;4.286;2022-11-18T00:27:18;11.00;99.90
22738;DHT22;11536;50.860;4.286;2022-11-18T00:29:43;11.00;99.90
22738;DHT22;11536;50.860;4.286;2022-11-18T00:32:09;11.10;99.90
22738;DHT22;11536;50.860;4.286;2022-11-18T00:34:34;11.00;99.90
22738;DHT22;11536;50.860;4.286;2022-11-18T00:37:00;11.00;99.90
22738;DHT22;11536;50.860;4.286;2022-11-18T00:39:25;11.10;99.90
22738;DHT22;11536;50.860;4.286;2022-11-18T00:41:51;11.00;99.90
22738;DHT22;11536;50.860;4.286;2022-11-18T00:44:35;11.00;99.90
22738;DHT22;11536;50.860;4.286;2022-11-18T00:47:01;11.00;99.90
22738;DHT22;11536;50.860;4.286;2022-11-18T00:49:26;11.00;99.90
22738;DHT22;11536;50.860;4.286;2022-11-18T00:51:52;11.00;99.90
22738;DHT22;11536;50.860;4.286;2022-11-18T00:54:18;11.00;99.90
22738;DHT22;11536;50.860;4.286;2022-11-18T00:56:43;11.00;99.90
22738;DHT22;11536;50.860;4.286;2022-11-18T00:59:09;11.00;99.90
22738;DHT22;11536;50.860;4.286;2022-11-18T01:01:34;11.00;99.90
22738;DHT22;11536;50.860;4.286;2022-11-18T01:04:00;11.00;99.90
22738;DHT22;11536;50.860;4.286;2022-11-18T01:06:26;11.00;99.90
22738;DHT22;11536;50.860;4.286;2022-11-18T01:08:51;11.00;99.90
22738;DHT22;11536;50.860;4.286;2022-11-18T01:11:17;11.00;99.90
22738;DHT22;11536;50.860;4.286;2022-11-18T01:14:01;11.00;99.90
22738;DHT22;11536;50.860;4.286;2022-11-18T01:16:27;11.00;99.90
22738;DHT22;11536;50.860;4.286;2022-11-18T01:18:54;10.90;99.90
22738;DHT22;11536;50.860;4.286;2022-11-18T01:21:20;11.00;99.90
22738;DHT22;11536;50.860;4.286;2022-11-18T01:23:46;10.90;99.90
22738;DHT22;11536;50.860;4.286;2022-11-18T01:26:13;10.90;99.90
22738;DHT22;11536;50.860;4.286;2022-11-18T01:28:39;10.90;99.90
22738;DHT22;11536;50.860;4.286;2022-11-18T01:31:14;10.90;99.90
22738;DHT22;11536;50.860;4.286;2022-11-18T01:33:40;10.90;99.90
22738;DHT22;11536;50.860;4.286;2022-11-18T01:36:21;10.80;99.90
22738;DHT22;11536;50.860;4.286;2022-11-18T01:38:47;10.80;99.90
22738;DHT22;11536;50.860;4.286;2022-11-18T01:41:14;10.80;99.90
22738;DHT22;11536;50.860;4.286;2022-11-18T01:46:50;10.80;99.90
22738;DHT22;11536;50.860;4.286;2022-11-18T01:49:16;10.70;99.90
22738;DHT22;11536;50.860;4.286;2022-11-18T01:51:52;10.70;99.90
22738;DHT22;11536;50.860;4.286;2022-11-18T01:54:26;10.70;99.90
22738;DHT22;11536;50.860;4.286;2022-11-18T01:56:57;10.70;99.90
22738;DHT22;11536;50.860;4.286;2022-11-18T01:59:26;10.70;99.90
22738;DHT22;11536;50.860;4.286;2022-11-18T02:01:55;10.70;99.90
22738;DHT22;11536;50.860;4.286;2022-11-18T02:04:21;10.60;99.90
22738;DHT22;11536;50.860;4.286;2022-11-18T02:06:47;10.60;99.90
22738;DHT22;11536;50.860;4.286;2022-11-18T02:09:14;10.60;99.90
22738;DHT22;11536;50.860;4.286;2022-11-18T02:11:41;10.60;99.90
22738;DHT22;11536;50.860;4.286;2022-11-18T02:14:36;10.60;99.90
22738;DHT22;11536;50.860;4.286;2022-11-18T02:31:15;10.50;99.90
22738;DHT22;11536;50.860;4.286;2022-11-18T02:33:55;10.50;99.90
22738;DHT22;11536;50.860;4.286;2022-11-18T02:36:40;10.40;99.90
22738;DHT22;11536;50.860;4.286;2022-11-18T02:39:51;10.40;99.90
22738;DHT22;11536;50.860;4.286;2022-11-18T02:41:59;10.40;99.90
22738;DHT22;11536;50.860;4.286;2022-11-18T02:44:28;10.40;99.90
22738;DHT22;11536;50.860;4.286;2022-11-18T02:46:58;10.30;99.90
22738;DHT22;11536;50.860;4.286;2022-11-18T02:49:34;10.40;99.90
22738;DHT22;11536;50.860;4.286;2022-11-18T02:52:02;10.30;99.90
22738;DHT22;11536;50.860;4.286;2022-11-18T02:54:29;10.40;99.90
22738;DHT22;11536;50.860;4.286;2022-11-18T02:56:56;10.30;99.90
22738;DHT22;11536;50.860;4.286;2022-11-18T02:59:22;10.30;99.90
22738;DHT22;11536;50.860;4.286;2022-11-18T03:01:48;10.30;99.90
22738;DHT22;11536;50.860;4.286;2022-11-18T03:04:15;10.30;99.90
22738;DHT22;11536;50.860;4.286;2022-11-18T03:06:47;10.30;99.90
22738;DHT22;11536;50.860;4.286;2022-11-18T03:09:26;10.30;99.90
22738;DHT22;11536;50.860;4.286;2022-11-18T03:20:35;10.20;99.90
22738;DHT22;11536;50.860;4.286;2022-11-18T03:25:44;10.20;99.90
22738;DHT22;11536;50.860;4.286;2022-11-18T03:28:26;10.10;99.90
22738;DHT22;11536;50.860;4.286;2022-11-18T03:33:56;10.10;99.90
22738;DHT22;11536;50.860;4.286;2022-11-18T03:36:27;10.10;99.90
22738;DHT22;11536;50.860;4.286;2022-11-18T03:38:57;10.10;99.90
22738;DHT22;11536;50.860;4.286;2022-11-18T03:41:25;10.10;99.90
22738;DHT22;11536;50.860;4.286;2022-11-18T03:43:59;10.00;99.90
22738;DHT22;11536;50.860;4.286;2022-11-18T03:46:33;10.00;99.90
22738;DHT22;11536;50.860;4.286;2022-11-18T03:48:59;10.00;99.90
22738;DHT22;11536;50.860;4.286;2022-11-18T03:51:32;9.90;99.90
22738;DHT22;11536;50.860;4.286;2022-11-18T03:54:08;9.90;99.90
22738;DHT22;11536;50.860;4.286;2022-11-18T03:56:38;9.90;99.90
22738;DHT22;11536;50.860;4.286;2022-11-18T03:59:18;9.90;99.90
22738;DHT22;11536;50.860;4.286;2022-11-18T04:04:11;9.90;99.90
22738;DHT22;11536;50.860;4.286;2022-11-18T04:06:43;9.80;99.90
22738;DHT22;11536;50.860;4.286;2022-11-18T04:09:23;9.80;99.90
22738;DHT22;11536;50.860;4.286;2022-11-18T04:12:02;9.80;99.90
22738;DHT22;11536;50.860;4.286;2022-11-18T04:14:37;9.80;99.90
22738;DHT22;11536;50.860;4.286;2022-11-18T04:17:25;9.80;99.90
22738;DHT22;11536;50.860;4.286;2022-11-18T04:19:51;9.80;99.90
22738;DHT22;11536;50.860;4.286;2022-11-18T04:22:17;9.80;99.90
22738;DHT22;11536;50.860;4.286;2022-11-18T04:24:43;9.80;99.90
22738;DHT22;11536;50.860;4.286;2022-11-18T04:27:09;9.80;99.90
22738;DHT22;11536;50.860;4.286;2022-11-18T04:29:34;9.80;99.90
22738;DHT22;11536;50.860;4.286;2022-11-18T04:32:01;9.80;99.90
22738;DHT22;11536;50.860;4.286;2022-11-18T04:34:26;9.80;99.90
22738;DHT22;11536;50.860;4.286;2022-11-18T04:36:53;9.70;99.90
22738;DHT22;11536;50.860;4.286;2022-11-18T04:39:19;9.70;99.90
22738;DHT22;11536;50.860;4.286;2022-11-18T04:41:44;9.70;99.90
22738;DHT22;11536;50.860;4.286;2022-11-18T04:44:26;9.70;99.90
22738;DHT22;11536;50.860;4.286;2022-11-18T04:46:53;9.70;99.90
22738;DHT22;11536;50.860;4.286;2022-11-18T04:49:20;9.70;99.90
22738;DHT22;11536;50.860;4.286;2022-11-18T04:51:46;9.70;99.90
22738;DHT22;11536;50.860;4.286;2022-11-18T04:54:12;9.70;99.90
22738;DHT22;11536;50.860;4.286;2022-11-18T04:56:38;9.70;99.90
22738;DHT22;11536;50.860;4.286;2022-11-18T04:59:05;9.70;99.90
22738;DHT22;11536;50.860;4.286;2022-11-18T05:01:31;9.70;99.90
22738;DHT22;11536;50.860;4.286;2022-11-18T05:03:58;9.70;99.90
22738;DHT22;11536;50.860;4.286;2022-11-18T05:06:24;9.70;99.90
22738;DHT22;11536;50.860;4.286;2022-11-18T05:08:49;9.70;99.90
22738;DHT22;11536;50.860;4.286;2022-11-18T05:11:15;9.60;99.90
22738;DHT22;11536;50.860;4.286;2022-11-18T05:13:59;9.70;99.90
22738;DHT22;11536;50.860;4.286;2022-11-18T05:16:25;9.60;99.90
22738;DHT22;11536;50.860;4.286;2022-11-18T05:18:50;9.70;99.90
22738;DHT22;11536;50.860;4.286;2022-11-18T05:21:16;9.70;99.90
22738;DHT22;11536;50.860;4.286;2022-11-18T05:23:42;9.70;99.90
22738;DHT22;11536;50.860;4.286;2022-11-18T05:26:09;9.60;99.90
22738;DHT22;11536;50.860;4.286;2022-11-18T05:28:35;9.60;99.90
22738;DHT22;11536;50.860;4.286;2022-11-18T05:31:08;9.60;99.90
22738;DHT22;11536;50.860;4.286;2022-11-18T05:33:34;9.60;99.90
22738;DHT22;11536;50.860;4.286;2022-11-18T05:36:07;9.60;99.90
22738;DHT22;11536;50.860;4.286;2022-11-18T05:38:34;9.60;99.90
22738;DHT22;11536;50.860;4.286;2022-11-18T05:41:00;9.60;99.90
22738;DHT22;11536;50.860;4.286;2022-11-18T05:43:27;9.60;99.90
22738;DHT22;11536;50.860;4.286;2022-11-18T05:45:52;9.60;99.90
22738;DHT22;11536;50.860;4.286;2022-11-18T05:48:18;9.60;99.90
22738;DHT22;11536;50.860;4.286;2022-11-18T05:50:48;9.60;99.90
22738;DHT22;11536;50.860;4.286;2022-11-18T05:53:15;9.60;99.90
22738;DHT22;11536;50.860;4.286;2022-11-18T05:58:30;9.50;99.90
22738;DHT22;11536;50.860;4.286;2022-11-18T06:01:00;9.50;99.90
22738;DHT22;11536;50.860;4.286;2022-11-18T06:03:30;9.50;99.90
22738;DHT22;11536;50.860;4.286;2022-11-18T06:06:01;9.50;99.90
22738;DHT22;11536;50.860;4.286;2022-11-18T06:08:34;9.50;99.90
22738;DHT22;11536;50.860;4.286;2022-11-18T06:11:02;9.50;99.90
22738;DHT22;11536;50.860;4.286;2022-11-18T06:13:38;9.50;99.90
22738;DHT22;11536;50.860;4.286;2022-11-18T06:16:04;9.50;99.90
22738;DHT22;11536;50.860;4.286;2022-11-18T06:18:31;9.50;99.90
22738;DHT22;11536;50.860;4.286;2022-11-18T06:21:00;9.50;99.90
22738;DHT22;11536;50.860;4.286;2022-11-18T06:23:29;9.50;99.90
22738;DHT22;11536;50.860;4.286;2022-11-18T06:25:55;9.50;99.90
22738;DHT22;11536;50.860;4.286;2022-11-18T06:28:21;9.50;99.90
22738;DHT22;11536;50.860;4.286;2022-11-18T06:30:48;9.50;99.90
22738;DHT22;11536;50.860;4.286;2022-11-18T06:33:14;9.50;99.90
22738;DHT22;11536;50.860;4.286;2022-11-18T06:35:41;9.50;99.90
22738;DHT22;11536;50.860;4.286;2022-11-18T06:38:07;9.50;99.90
22738;DHT22;11536;50.860;4.286;2022-11-18T06:40:32;9.50;99.90
22738;DHT22;11536;50.860;4.286;2022-11-18T06:43:05;9.50;99.90
22738;DHT22;11536;50.860;4.286;2022-11-18T06:45:51;9.50;99.90
22738;DHT22;11536;50.860;4.286;2022-11-18T06:48:36;9.50;99.90
22738;DHT22;11536;50.860;4.286;2022-11-18T06:51:05;9.50;99.90
22738;DHT22;11536;50.860;4.286;2022-11-18T06:53:31;9.50;99.90
22738;DHT22;11536;50.860;4.286;2022-11-18T06:56:05;9.40;99.90
22738;DHT22;11536;50.860;4.286;2022-11-18T06:58:31;9.50;99.90
22738;DHT22;11536;50.860;4.286;2022-11-18T07:00:56;9.40;99.90
22738;DHT22;11536;50.860;4.286;2022-11-18T07:03:22;9.40;99.90
22738;DHT22;11536;50.860;4.286;2022-11-18T07:05:47;9.40;99.90
22738;DHT22;11536;50.860;4.286;2022-11-18T07:08:13;9.50;99.90
22738;DHT22;11536;50.860;4.286;2022-11-18T07:10:38;9.40;99.90
22738;DHT22;11536;50.860;4.286;2022-11-18T07:13:04;9.50;99.90
22738;DHT22;11536;50.860;4.286;2022-11-18T07:15:29;9.50;99.90
22738;DHT22;11536;50.860;4.286;2022-11-18T07:17:55;9.50;99.90
22738;DHT22;11536;50.860;4.286;2022-11-18T07:20:21;9.50;99.90
22738;DHT22;11536;50.860;4.286;2022-11-18T07:22:46;9.50;99.90
22738;DHT22;11536;50.860;4.286;2022-11-18T07:25:12;9.50;99.90
22738;DHT22;11536;50.860;4.286;2022-11-18T07:27:37;9.50;99.90
22738;DHT22;11536;50.860;4.286;2022-11-18T07:30:03;9.60;99.90
22738;DHT22;11536;50.860;4.286;2022-11-18T07:32:31;9.60;99.90
22738;DHT22;11536;50.860;4.286;2022-11-18T07:34:56;9.60;99.90
22738;DHT22;11536;50.860;4.286;2022-11-18T07:37:22;9.60;99.90
22738;DHT22;11536;50.860;4.286;2022-11-18T07:39:48;9.70;99.90
22738;DHT22;11536;50.860;4.286;2022-11-18T07:42:13;9.70;99.90
22738;DHT22;11536;50.860;4.286;2022-11-18T07:44:39;9.70;99.90
22738;DHT22;11536;50.860;4.286;2022-11-18T07:47:04;9.70;99.90
22738;DHT22;11536;50.860;4.286;2022-11-18T07:49:30;9.70;99.90
22738;DHT22;11536;50.860;4.286;2022-11-18T07:51:55;9.80;99.90
22738;DHT22;11536;50.860;4.286;2022-11-18T07:54:21;9.80;99.90
22738;DHT22;11536;50.860;4.286;2022-11-18T07:56:47;9.80;99.90
22738;DHT22;11536;50.860;4.286;2022-11-18T07:59:12;9.80;99.90
22738;DHT22;11536;50.860;4.286;2022-11-18T08:01:38;9.80;99.90
22738;DHT22;11536;50.860;4.286;2022-11-18T08:04:10;9.80;99.90
22738;DHT22;11536;50.860;4.286;2022-11-18T08:06:37;9.80;99.90
22738;DHT22;11536;50.860;4.286;2022-11-18T08:09:03;9.80;99.90
22738;DHT22;11536;50.860;4.286;2022-11-18T08:11:29;9.80;99.90
22738;DHT22;11536;50.860;4.286;2022-11-18T08:13:55;9.90;99.90
22738;DHT22;11536;50.860;4.286;2022-11-18T08:16:23;9.90;99.90
22738;DHT22;11536;50.860;4.286;2022-11-18T08:18:49;9.90;99.90
22738;DHT22;11536;50.860;4.286;2022-11-18T08:21:17;9.90;99.90
22738;DHT22;11536;50.860;4.286;2022-11-18T08:23:43;9.90;99.90
22738;DHT22;11536;50.860;4.286;2022-11-18T08:26:13;10.00;99.90
22738;DHT22;11536;50.860;4.286;2022-11-18T08:28:40;10.00;99.90
22738;DHT22;11536;50.860;4.286;2022-11-18T08:31:24;10.00;99.90
22738;DHT22;11536;50.860;4.286;2022-11-18T08:33:58;10.00;99.90
22738;DHT22;11536;50.860;4.286;2022-11-18T08:36:26;10.00;99.90
22738;DHT22;11536;50.860;4.286;2022-11-18T08:38:53;10.00;99.90
22738;DHT22;11536;50.860;4.286;2022-11-18T08:41:28;10.10;99.90
22738;DHT22;11536;50.860;4.286;2022-11-18T08:43:55;10.10;99.90
22738;DHT22;11536;50.860;4.286;2022-11-18T08:46:20;10.10;99.90
22738;DHT22;11536;50.860;4.286;2022-11-18T08:48:47;10.10;99.90
22738;DHT22;11536;50.860;4.286;2022-11-18T08:51:13;10.10;99.90
22738;DHT22;11536;50.860;4.286;2022-11-18T08:53:40;10.10;99.90
22738;DHT22;11536;50.860;4.286;2022-11-18T08:56:06;10.20;99.90
22738;DHT22;11536;50.860;4.286;2022-11-18T08:58:32;10.20;99.90
22738;DHT22;11536;50.860;4.286;2022-11-18T09:00:58;10.20;99.90
22738;DHT22;11536;50.860;4.286;2022-11-18T09:03:28;10.20;99.90
22738;DHT22;11536;50.860;4.286;2022-11-18T09:06:13;10.20;99.90
22738;DHT22;11536;50.860;4.286;2022-11-18T09:08:40;10.20;99.90
22738;DHT22;11536;50.860;4.286;2022-11-18T09:11:16;10.30;99.90
22738;DHT22;11536;50.860;4.286;2022-11-18T09:13:42;10.30;99.90
22738;DHT22;11536;50.860;4.286;2022-11-18T09:16:08;10.30;99.90
22738;DHT22;11536;50.860;4.286;2022-11-18T09:18:34;10.30;99.90
22738;DHT22;11536;50.860;4.286;2022-11-18T09:21:06;10.30;99.90
22738;DHT22;11536;50.860;4.286;2022-11-18T09:23:34;10.40;99.90
22738;DHT22;11536;50.860;4.286;2022-11-18T09:26:13;10.40;99.90
22738;DHT22;11536;50.860;4.286;2022-11-18T09:28:39;10.40;99.90
22738;DHT22;11536;50.860;4.286;2022-11-18T09:31:07;10.40;99.90
22738;DHT22;11536;50.860;4.286;2022-11-18T09:33:36;10.40;99.90
22738;DHT22;11536;50.860;4.286;2022-11-18T09:36:03;10.50;99.90
22738;DHT22;11536;50.860;4.286;2022-11-18T09:38:30;10.50;99.90
22738;DHT22;11536;50.860;4.286;2022-11-18T09:49:15;10.60;99.90
22738;DHT22;11536;50.860;4.286;2022-11-18T09:51:46;10.60;99.90
22738;DHT22;11536;50.860;4.286;2022-11-18T09:54:27;10.60;99.90
22738;DHT22;11536;50.860;4.286;2022-11-18T09:56:55;10.70;99.90
22738;DHT22;11536;50.860;4.286;2022-11-18T09:59:24;10.70;99.90
22738;DHT22;11536;50.860;4.286;2022-11-18T10:01:53;10.70;99.90
22738;DHT22;11536;50.860;4.286;2022-11-18T10:04:21;10.80;99.90
22738;DHT22;11536;50.860;4.286;2022-11-18T10:06:47;10.80;99.90
22738;DHT22;11536;50.860;4.286;2022-11-18T10:09:22;10.80;99.90
22738;DHT22;11536;50.860;4.286;2022-11-18T10:15:13;10.90;99.90
22738;DHT22;11536;50.860;4.286;2022-11-18T10:23:34;11.00;99.90
22738;DHT22;11536;50.860;4.286;2022-11-18T10:26:05;11.00;99.90
22738;DHT22;11536;50.860;4.286;2022-11-18T10:28:30;11.10;99.90
22738;DHT22;11536;50.860;4.286;2022-11-18T10:31:07;11.10;99.90
22738;DHT22;11536;50.860;4.286;2022-11-18T10:33:34;11.10;99.90
22738;DHT22;11536;50.860;4.286;2022-11-18T10:36:40;11.10;99.90
22738;DHT22;11536;50.860;4.286;2022-11-18T10:39:10;11.20;99.90
22738;DHT22;11536;50.860;4.286;2022-11-18T10:41:48;11.20;99.90
22738;DHT22;11536;50.860;4.286;2022-11-18T10:44:35;11.20;99.90
22738;DHT22;11536;50.860;4.286;2022-11-18T10:49:52;11.20;99.90
22738;DHT22;11536;50.860;4.286;2022-11-18T10:52:18;11.20;99.90
22738;DHT22;11536;50.860;4.286;2022-11-18T10:54:44;11.20;99.90
22738;DHT22;11536;50.860;4.286;2022-11-18T10:57:20;11.20;99.90
22738;DHT22;11536;50.860;4.286;2022-11-18T11:02:31;11.20;99.90
22738;DHT22;11536;50.860;4.286;2022-11-18T11:05:00;11.20;99.90
22738;DHT22;11536;50.860;4.286;2022-11-18T11:07:29;11.30;99.90
22738;DHT22;11536;50.860;4.286;2022-11-18T11:15:11;11.30;99.90
22738;DHT22;11536;50.860;4.286;2022-11-18T11:20:59;11.30;99.90
22738;DHT22;11536;50.860;4.286;2022-11-18T11:23:25;11.30;99.90
22738;DHT22;11536;50.860;4.286;2022-11-18T11:26:00;11.30;99.90
22738;DHT22;11536;50.860;4.286;2022-11-18T11:28:49;11.30;99.90
22738;DHT22;11536;50.860;4.286;2022-11-18T11:31:38;11.40;99.90
22738;DHT22;11536;50.860;4.286;2022-11-18T11:34:19;11.30;99.90
22738;DHT22;11536;50.860;4.286;2022-11-18T11:56:31;11.50;99.90
22738;DHT22;11536;50.860;4.286;2022-11-18T12:06:49;11.60;99.90
22738;DHT22;11536;50.860;4.286;2022-11-18T12:20:43;11.60;99.90
22738;DHT22;11536;50.860;4.286;2022-11-18T12:23:24;11.60;99.90
22738;DHT22;11536;50.860;4.286;2022-11-18T12:26:10;11.60;99.90
22738;DHT22;11536;50.860;4.286;2022-11-18T12:28:40;11.60;99.90
22738;DHT22;11536;50.860;4.286;2022-11-18T12:34:00;11.70;99.90
22738;DHT22;11536;50.860;4.286;2022-11-18T12:36:35;11.70;99.90
22738;DHT22;11536;50.860;4.286;2022-11-18T12:41:58;11.70;99.90
22738;DHT22;11536;50.860;4.286;2022-11-18T12:44:45;11.70;99.90
22738;DHT22;11536;50.860;4.286;2022-11-18T12:47:15;11.80;99.90
22738;DHT22;11536;50.860;4.286;2022-11-18T12:54:57;11.80;99.90
22738;DHT22;11536;50.860;4.286;2022-11-18T12:57:33;11.80;99.90
22738;DHT22;11536;50.860;4.286;2022-11-18T13:00:35;11.90;99.90
22738;DHT22;11536;50.860;4.286;2022-11-18T13:03:21;11.90;99.90
22738;DHT22;11536;50.860;4.286;2022-11-18T13:05:49;11.90;99.90
22738;DHT22;11536;50.860;4.286;2022-11-18T13:08:16;11.90;99.90
22738;DHT22;11536;50.860;4.286;2022-11-18T13:13:25;12.00;99.90
22738;DHT22;11536;50.860;4.286;2022-11-18T13:15:53;12.00;99.90
22738;DHT22;11536;50.860;4.286;2022-11-18T13:18:48;12.10;99.90
22738;DHT22;11536;50.860;4.286;2022-11-18T13:21:26;12.10;99.90
22738;DHT22;11536;50.860;4.286;2022-11-18T13:24:15;12.10;99.90
22738;DHT22;11536;50.860;4.286;2022-11-18T13:26:43;12.10;99.90
22738;DHT22;11536;50.860;4.286;2022-11-18T13:34:51;12.20;99.90
22738;DHT22;11536;50.860;4.286;2022-11-18T13:37:23;12.20;99.90
22738;DHT22;11536;50.860;4.286;2022-11-18T13:39:50;12.30;99.90
22738;DHT22;11536;50.860;4.286;2022-11-18T13:42:27;12.30;99.90
22738;DHT22;11536;50.860;4.286;2022-11-18T13:44:58;12.30;99.90
22738;DHT22;11536;50.860;4.286;2022-11-18T13:47:37;12.30;99.90
22738;DHT22;11536;50.860;4.286;2022-11-18T13:50:52;12.40;99.90
22738;DHT22;11536;50.860;4.286;2022-11-18T13:55:35;12.40;99.90
22738;DHT22;11536;50.860;4.286;2022-11-18T13:58:10;12.40;99.90
22738;DHT22;11536;50.860;4.286;2022-11-18T14:00:57;12.40;99.90
22738;DHT22;11536;50.860;4.286;2022-11-18T14:03:29;12.50;99.90
22738;DHT22;11536;50.860;4.286;2022-11-18T14:05:56;12.40;99.90
22738;DHT22;11536;50.860;4.286;2022-11-18T14:08:28;12.50;99.90
22738;DHT22;11536;50.860;4.286;2022-11-18T14:10:54;12.50;99.90
22738;DHT22;11536;50.860;4.286;2022-11-18T14:13:27;12.50;99.90
22738;DHT22;11536;50.860;4.286;2022-11-18T14:18:48;12.50;99.90
22738;DHT22;11536;50.860;4.286;2022-11-18T14:21:29;12.50;99.90
22738;DHT22;11536;50.860;4.286;2022-11-18T14:23:56;12.50;99.90
22738;DHT22;11536;50.860;4.286;2022-11-18T14:26:33;12.50;99.90
22738;DHT22;11536;50.860;4.286;2022-11-18T14:29:02;12.60;99.90
22738;DHT22;11536;50.860;4.286;2022-11-18T14:31:31;12.60;99.90
22738;DHT22;11536;50.860;4.286;2022-11-18T14:34:23;12.60;99.90
22738;DHT22;11536;50.860;4.286;2022-11-18T14:36:50;12.60;99.90
22738;DHT22;11536;50.860;4.286;2022-11-18T14:39:30;12.60;99.90
22738;DHT22;11536;50.860;4.286;2022-11-18T14:41:57;12.60;99.90
22738;DHT22;11536;50.860;4.286;2022-11-18T14:44:25;12.60;99.90
22738;DHT22;11536;50.860;4.286;2022-11-18T14:46:53;12.60;99.90
22738;DHT22;11536;50.860;4.286;2022-11-18T14:49:23;12.60;99.90
22738;DHT22;11536;50.860;4.286;2022-11-18T14:51:50;12.60;99.90
22738;DHT22;11536;50.860;4.286;2022-11-18T14:54:19;12.60;99.90
22738;DHT22;11536;50.860;4.286;2022-11-18T14:56:47;12.70;99.90
22738;DHT22;11536;50.860;4.286;2022-11-18T14:59:15;12.70;99.90
22738;DHT22;11536;50.860;4.286;2022-11-18T15:01:42;12.70;99.90
22738;DHT22;11536;50.860;4.286;2022-11-18T15:04:08;12.60;99.90
22738;DHT22;11536;50.860;4.286;2022-11-18T15:06:33;12.60;99.90
22738;DHT22;11536;50.860;4.286;2022-11-18T15:08:59;12.60;99.90
22738;DHT22;11536;50.860;4.286;2022-11-18T15:11:25;12.70;99.90
22738;DHT22;11536;50.860;4.286;2022-11-18T15:13:50;12.60;99.90
22738;DHT22;11536;50.860;4.286;2022-11-18T15:16:25;12.60;99.90
22738;DHT22;11536;50.860;4.286;2022-11-18T15:18:54;12.60;99.90
22738;DHT22;11536;50.860;4.286;2022-11-18T15:21:21;12.60;99.90
22738;DHT22;11536;50.860;4.286;2022-11-18T15:23:46;12.50;99.90
22738;DHT22;11536;50.860;4.286;2022-11-18T15:26:21;12.50;99.90
22738;DHT22;11536;50.860;4.286;2022-11-18T15:28:48;12.50;99.90
22738;DHT22;11536;50.860;4.286;2022-11-18T15:31:15;12.50;99.90
22738;DHT22;11536;50.860;4.286;2022-11-18T15:33:42;12.50;99.90
22738;DHT22;11536;50.860;4.286;2022-11-18T15:36:13;12.50;99.90
22738;DHT22;11536;50.860;4.286;2022-11-18T15:38:40;12.50;99.90
22738;DHT22;11536;50.860;4.286;2022-11-18T15:44:02;12.50;99.90
22738;DHT22;11536;50.860;4.286;2022-11-18T15:46:28;12.40;99.90
22738;DHT22;11536;50.860;4.286;2022-11-18T15:48:59;12.40;99.90
22738;DHT22;11536;50.860;4.286;2022-11-18T15:51:26;12.40;99.90
22738;DHT22;11536;50.860;4.286;2022-11-18T15:53:53;12.40;99.90
22738;DHT22;11536;50.860;4.286;2022-11-18T15:58:58;12.40;99.90
22738;DHT22;11536;50.860;4.286;2022-11-18T16:01:27;12.40;99.90
22738;DHT22;11536;50.860;4.286;2022-11-18T16:03:53;12.40;99.90
22738;DHT22;11536;50.860;4.286;2022-11-18T16:06:19;12.30;99.90
22738;DHT22;11536;50.860;4.286;2022-11-18T16:08:45;12.30;99.90
22738;DHT22;11536;50.860;4.286;2022-11-18T16:11:16;12.30;99.90
22738;DHT22;11536;50.860;4.286;2022-11-18T16:14:05;12.30;99.90
22738;DHT22;11536;50.860;4.286;2022-11-18T16:16:32;12.20;99.90
22738;DHT22;11536;50.860;4.286;2022-11-18T16:19:04;12.20;99.90
22738;DHT22;11536;50.860;4.286;2022-11-18T16:21:33;12.20;99.90
22738;DHT22;11536;50.860;4.286;2022-11-18T16:24:23;12.20;99.90
22738;DHT22;11536;50.860;4.286;2022-11-18T16:26:49;12.20;99.90
22738;DHT22;11536;50.860;4.286;2022-11-18T16:29:15;12.20;99.90
22738;DHT22;11536;50.860;4.286;2022-11-18T16:31:42;12.10;99.90
22738;DHT22;11536;50.860;4.286;2022-11-18T16:34:16;12.10;99.90
22738;DHT22;11536;50.860;4.286;2022-11-18T16:36:45;12.10;99.90
22738;DHT22;11536;50.860;4.286;2022-11-18T16:39:18;12.10;99.90
22738;DHT22;11536;50.860;4.286;2022-11-18T16:41:51;12.10;99.90
22738;DHT22;11536;50.860;4.286;2022-11-18T16:44:17;12.10;99.90
22738;DHT22;11536;50.860;4.286;2022-11-18T16:46:54;12.10;99.90
22738;DHT22;11536;50.860;4.286;2022-11-18T16:49:25;12.10;99.90
22738;DHT22;11536;50.860;4.286;2022-11-18T16:51:52;12.10;99.90
22738;DHT22;11536;50.860;4.286;2022-11-18T16:56:46;12.10;99.90
22738;DHT22;11536;50.860;4.286;2022-11-18T16:59:23;12.10;99.90
22738;DHT22;11536;50.860;4.286;2022-11-18T17:01:50;12.10;99.90
22738;DHT22;11536;50.860;4.286;2022-11-18T17:04:16;12.00;99.90
22738;DHT22;11536;50.860;4.286;2022-11-18T17:06:43;12.00;99.90
22738;DHT22;11536;50.860;4.286;2022-11-18T17:09:16;12.00;99.90
22738;DHT22;11536;50.860;4.286;2022-11-18T17:11:41;12.00;99.90
22738;DHT22;11536;50.860;4.286;2022-11-18T17:14:07;11.90;99.90
22738;DHT22;11536;50.860;4.286;2022-11-18T17:16:33;11.90;99.90
22738;DHT22;11536;50.860;4.286;2022-11-18T17:18:59;12.00;99.90
22738;DHT22;11536;50.860;4.286;2022-11-18T17:21:27;11.90;99.90
22738;DHT22;11536;50.860;4.286;2022-11-18T17:23:53;11.90;99.90
22738;DHT22;11536;50.860;4.286;2022-11-18T17:26:21;11.90;99.90
22738;DHT22;11536;50.860;4.286;2022-11-18T17:28:47;11.90;99.90
22738;DHT22;11536;50.860;4.286;2022-11-18T17:31:15;11.90;99.90
22738;DHT22;11536;50.860;4.286;2022-11-18T17:33:41;11.90;99.90
22738;DHT22;11536;50.860;4.286;2022-11-18T17:36:14;11.90;99.90
22738;DHT22;11536;50.860;4.286;2022-11-18T17:38:42;11.90;99.90
22738;DHT22;11536;50.860;4.286;2022-11-18T17:41:10;11.90;99.90
22738;DHT22;11536;50.860;4.286;2022-11-18T17:44:00;11.80;99.90
22738;DHT22;11536;50.860;4.286;2022-11-18T17:46:26;11.80;99.90
22738;DHT22;11536;50.860;4.286;2022-11-18T17:48:59;11.90;99.90
22738;DHT22;11536;50.860;4.286;2022-11-18T17:51:27;11.80;99.90
22738;DHT22;11536;50.860;4.286;2022-11-18T17:53:52;11.80;99.90
22738;DHT22;11536;50.860;4.286;2022-11-18T17:56:18;11.80;99.90
22738;DHT22;11536;50.860;4.286;2022-11-18T17:58:44;11.80;99.90
22738;DHT22;11536;50.860;4.286;2022-11-18T18:01:12;11.80;99.90
22738;DHT22;11536;50.860;4.286;2022-11-18T18:03:38;11.80;99.90
22738;DHT22;11536;50.860;4.286;2022-11-18T18:06:05;11.80;99.90
22738;DHT22;11536;50.860;4.286;2022-11-18T18:08:31;11.80;99.90
22738;DHT22;11536;50.860;4.286;2022-11-18T18:13:26;11.70;99.90